Crown Point, Vermont
Current Conditions -  °F | °C
As of 6:55 PM on Saturday 25 Oct 2014 (Local Time) from K6B0 Reporting Station
Moderate Rain Moderate Rain  
Wind Chill: 55°   Ceiling: 6000
Heat Index: 55°   Visibility: 10mi
Dew Point: 47°   Wind: 6mph
Humidity: 73%   Direction: 150°SSE
Pressure: 29.52"   Gusts: NA
Location:  44.0804°N, 73.3324°W
Report Text: K6B0 252255Z AUTO 15005KT 10SM RA OVC060 13/08 A2952 RMK AO2 T01300083
Loading
Personal Weather Stations






























Interactive Weather Map
Tropical Storm Tracking
New forecast layout! Learn more

10-Day Weather Forecast

Advertisements
Track Severe Weather on mobile